Terminal Aerodrome Forecast
Issued by NWS Sterling, VA

Home | Current Version | Previous Version | Text Only | Print | Product List | Glossary On
Versions: 1 2 3 4 5 6 7 8 9 10 11 12 13 14 15 16 17 18 19 20
000
FTUS41 KLWX 251735
TAFDCA
TAF
KDCA 251735Z 2518/2618 17009KT P6SM OVC220
     FM260100 15005KT P6SM BKN045
     FM260400 12007KT 4SM BR OVC025
     FM260700 11008KT 3SM BR OVC015
     FM260800 10008KT 3SM BR OVC008=

USA.gov is the U.S. government's official web portal to all federal, state and local government web resources and services.